Overview Statistics Trail Chart Weather Telemetry Raw packets
 

This is the latest recevied weather packets stored in our database for station/object EPGD. If no packets are shown the sender has not sent any weather packets the latest 10 day(s).

<< 15 16 17 18 19 20 >>
Time Temp. Humidity Pressure Rain* Wind** Luminosity Snow
1787837704 20° C 64% 1024 hPa - - - -
1787835904 20° C 64% 1024 hPa - - - -
1787834104 20° C 64% 1024 hPa - - - -
1787832304 18.89° C 68% 1024 hPa - - - -
1787830509 18.89° C 63% 1024 hPa - - - -
1787828704 20° C 64% 1025 hPa - - - -
1787826903 20° C 64% 1025 hPa - - - -
1787825104 18.89° C 68% 1025 hPa - - - -
1787823304 18.89° C 63% 1025 hPa - - - -
1787821504 18.89° C 63% 1025 hPa - - - -
1787819704 18.89° C 68% 1025 hPa - - - -
1787817904 17.78° C 77% 1025 hPa - - - -
1787816104 17.78° C 72% 1025 hPa - - - -
1787814304 16.67° C 77% 1025 hPa - - - -
1787812504 16.67° C 77% 1025 hPa - - - -
1787810704 15° C 82% 1025 hPa - - - -
1787808904 10.56° C 93% 1025 hPa - - - -
1787807104 10° C 93% 1025 hPa - - - -
1787805304 8.89° C 100% 1025 hPa - - - -
1787803504 8.89° C 100% 1025 hPa - - - -
1787801704 8.89° C 100% 1025 hPa - - - -
1787799904 8.89° C 100% 1025 hPa - - - -
1787798104 10° C 93% 1025 hPa - - - -
1787796304 10° C 93% 1025 hPa - - - -
1787794504 10° C 100% 1025 hPa - - - -

* Rain since midnight (hover to see other rain measurements)
** Current wind speed in m/s (hover to see current wind gust speed)